Time;durP1;ratioP1;P1;durP2;ratioP2;P2;SDS_P1;SDS_P2;PMS_P1;PMS_P2;Temp;Humidity;BMP_temperature;BMP_pressure;BME280_temperature;BME280_humidity;BME280_pressure;Samples;Min_cycle;Max_cycle;Signal;HPM_P1;HPM_P2
2023/09/02 00:01:49;;;;;;;3.08;1.70;;;19.30;74.50;;;;;;5000602;28;20049;-65
2023/09/02 00:04:15;;;;;;;1.55;1.17;;;19.20;74.50;;;;;;5018780;28;20033;-65
2023/09/02 00:06:41;;;;;;;2.70;1.63;;;19.30;74.40;;;;;;4998428;28;20667;-65
2023/09/02 00:09:06;;;;;;;2.30;1.67;;;19.30;74.60;;;;;;5004351;28;20120;-65
2023/09/02 00:11:32;;;;;;;2.70;1.38;;;19.30;74.30;;;;;;5012692;28;20389;-65
2023/09/02 00:13:57;;;;;;;2.20;1.38;;;19.30;74.40;;;;;;4999527;28;20550;-65
2023/09/02 00:16:23;;;;;;;1.98;1.67;;;19.30;74.60;;;;;;5005018;28;20045;-65
2023/09/02 00:18:49;;;;;;;1.63;1.10;;;19.20;74.20;;;;;;5010431;28;20493;-65
2023/09/02 00:21:14;;;;;;;1.48;1.08;;;19.20;74.50;;;;;;5017348;28;20026;-66
2023/09/02 00:23:46;;;;;;;1.77;1.40;;;19.30;74.50;;;;;;5015228;28;20440;-65
2023/09/02 00:26:12;;;;;;;1.35;1.23;;;19.20;74.40;;;;;;5022081;28;20141;-65
2023/09/02 00:28:38;;;;;;;1.60;1.23;;;19.30;74.40;;;;;;5015594;28;20121;-65
2023/09/02 00:31:03;;;;;;;3.40;1.60;;;19.30;74.40;;;;;;5000373;28;20030;-65
2023/09/02 00:33:29;;;;;;;2.47;1.20;;;19.20;74.50;;;;;;5015094;28;20057;-65
2023/09/02 00:35:54;;;;;;;2.25;1.52;;;19.30;74.50;;;;;;5003721;28;20064;-65
2023/09/02 00:38:20;;;;;;;2.42;1.90;;;19.30;74.70;;;;;;5021383;28;20113;-65
2023/09/02 00:40:54;;;;;;;1.83;1.58;;;19.30;74.70;;;;;;5016077;28;20030;-65
2023/09/02 00:43:20;;;;;;;2.22;1.35;;;19.30;74.60;;;;;;5003477;28;20148;-65
2023/09/02 00:45:45;;;;;;;1.50;1.30;;;19.30;74.40;;;;;;5016222;28;20053;-65
2023/09/02 00:48:11;;;;;;;2.28;1.63;;;19.30;74.60;;;;;;5019736;28;20041;-65
2023/09/02 00:50:37;;;;;;;2.90;1.40;;;19.30;74.70;;;;;;4996259;28;20038;-65
2023/09/02 00:53:03;;;;;;;2.00;1.60;;;19.30;75.00;;;;;;5022120;28;20109;-66
2023/09/02 00:55:29;;;;;;;1.80;1.20;;;19.30;74.80;;;;;;5001680;28;20160;-65
2023/09/02 00:57:56;;;;;;;1.42;1.17;;;19.30;74.80;;;;;;5019327;28;20569;-66
2023/09/02 01:00:22;;;;;;;1.83;1.23;;;19.30;74.60;;;;;;5021875;28;20033;-65
2023/09/02 01:02:49;;;;;;;1.38;1.20;;;19.30;74.70;;;;;;5016671;28;20030;-65
2023/09/02 01:05:15;;;;;;;1.88;1.50;;;19.30;74.50;;;;;;5020184;28;20045;-65
2023/09/02 01:07:43;;;;;;;2.50;1.25;;;19.30;74.90;;;;;;5004089;28;20099;-66
2023/09/02 01:10:09;;;;;;;1.50;1.20;;;19.30;74.50;;;;;;5013315;28;20027;-66
2023/09/02 01:12:35;;;;;;;1.58;1.30;;;19.30;74.90;;;;;;5017594;28;20462;-65
2023/09/02 01:15:00;;;;;;;1.50;1.40;;;19.30;75.30;;;;;;5017916;28;20026;-65
2023/09/02 01:17:26;;;;;;;1.20;1.02;;;19.30;74.80;;;;;;5016652;28;20113;-65
2023/09/02 01:19:53;;;;;;;1.75;1.55;;;19.30;74.50;;;;;;5017990;28;20117;-65
2023/09/02 01:22:53;;;;;;;4.10;1.70;;;19.30;75.00;;;;;;5020085;28;20032;-65
2023/09/02 01:25:45;;;;;;;2.42;1.50;;;19.20;75.20;;;;;;5017509;28;20079;-65
2023/09/02 01:28:17;;;;;;;2.60;1.42;;;19.30;74.70;;;;;;5020725;28;20445;-65
2023/09/02 01:30:46;;;;;;;2.35;1.40;;;19.20;75.00;;;;;;5020558;28;20447;-64
2023/09/02 01:33:12;;;;;;;2.15;1.20;;;19.20;75.00;;;;;;5016776;28;20044;-65
2023/09/02 01:35:38;;;;;;;1.27;1.10;;;19.30;75.00;;;;;;5018119;28;20091;-61
2023/09/02 01:38:06;;;;;;;2.22;1.65;;;19.30;74.60;;;;;;5016272;28;20507;-65
2023/09/02 01:40:33;;;;;;;2.08;1.55;;;19.30;74.60;;;;;;5014418;28;20133;-65
2023/09/02 01:42:59;;;;;;;1.60;1.17;;;19.30;75.10;;;;;;4997127;28;20758;-65
2023/09/02 01:45:29;;;;;;;2.42;1.70;;;19.30;74.70;;;;;;5016304;28;20034;-65
2023/09/02 01:47:55;;;;;;;1.88;1.55;;;19.30;75.00;;;;;;5018544;28;20036;-66
2023/09/02 01:50:23;;;;;;;1.52;1.42;;;19.30;75.10;;;;;;5022639;28;20402;-65
2023/09/02 01:52:49;;;;;;;3.08;1.58;;;19.20;75.10;;;;;;5023371;28;20377;-65
2023/09/02 01:55:16;;;;;;;1.52;1.35;;;19.20;74.80;;;;;;5024028;28;20076;-65
2023/09/02 01:57:42;;;;;;;1.30;1.20;;;19.30;75.00;;;;;;5024065;28;20548;-61
2023/09/02 02:00:08;;;;;;;2.67;1.75;;;19.30;74.80;;;;;;5025178;28;20112;-65
2023/09/02 02:02:36;;;;;;;2.28;1.48;;;19.30;75.10;;;;;;5022068;28;20405;-65
2023/09/02 02:05:13;;;;;;;1.95;1.40;;;19.20;74.40;;;;;;5023366;28;20029;-65
2023/09/02 02:07:42;;;;;;;2.38;1.30;;;19.30;74.70;;;;;;5023163;28;20030;-66
2023/09/02 02:10:15;;;;;;;1.92;1.55;;;19.30;75.00;;;;;;5018054;28;20033;-65
2023/09/02 02:12:41;;;;;;;1.77;1.63;;;19.20;74.90;;;;;;5021483;28;20026;-65
2023/09/02 02:15:11;;;;;;;1.60;1.10;;;19.30;75.00;;;;;;5023215;28;20040;-67
2023/09/02 02:17:41;;;;;;;1.65;1.45;;;19.30;75.10;;;;;;5002350;28;20037;-66
2023/09/02 02:20:11;;;;;;;2.13;1.38;;;19.30;75.40;;;;;;5025532;28;20068;-65
2023/09/02 02:22:37;;;;;;;1.88;1.70;;;19.30;74.60;;;;;;5024199;28;20032;-65
2023/09/02 02:25:03;;;;;;;1.98;1.50;;;19.30;74.60;;;;;;5025485;28;20022;-65
2023/09/02 02:27:28;;;;;;;1.83;1.60;;;19.30;74.80;;;;;;5023135;28;20565;-65
2023/09/02 02:29:53;;;;;;;2.63;1.73;;;19.30;74.70;;;;;;5023010;28;20030;-64
2023/09/02 02:32:20;;;;;;;2.85;1.88;;;19.30;74.90;;;;;;5025879;28;20464;-65
2023/09/02 02:34:46;;;;;;;2.53;1.85;;;19.30;74.60;;;;;;5004207;28;20079;-65
2023/09/02 02:37:11;;;;;;;2.85;2.03;;;19.30;74.60;;;;;;5018261;28;20700;-65
2023/09/02 02:39:36;;;;;;;2.15;1.63;;;19.30;75.00;;;;;;4995063;28;20027;-65
2023/09/02 02:42:02;;;;;;;3.38;1.67;;;19.30;74.80;;;;;;5005147;28;20025;-62
2023/09/02 02:44:28;;;;;;;3.28;1.85;;;19.30;74.80;;;;;;5011712;28;20030;-66
2023/09/02 02:46:53;;;;;;;2.63;1.83;;;19.30;74.80;;;;;;5010652;28;20026;-65
2023/09/02 02:49:19;;;;;;;2.80;1.90;;;19.30;74.70;;;;;;5016581;28;20516;-65
2023/09/02 02:51:44;;;;;;;2.17;1.83;;;19.30;74.60;;;;;;5000730;28;20076;-66
2023/09/02 02:54:10;;;;;;;2.58;1.80;;;19.30;74.50;;;;;;5012649;28;20106;-63
2023/09/02 02:56:35;;;;;;;2.10;1.60;;;19.20;74.50;;;;;;5023365;28;20038;-64
2023/09/02 02:59:01;;;;;;;2.47;1.90;;;19.30;74.50;;;;;;5007550;28;20033;-65
2023/09/02 03:01:26;;;;;;;3.80;2.05;;;19.20;74.40;;;;;;5016150;28;20033;-65
2023/09/02 03:03:52;;;;;;;2.70;1.83;;;19.20;74.40;;;;;;5021031;28;20068;-65
2023/09/02 03:06:18;;;;;;;2.53;1.90;;;19.20;74.50;;;;;;4998423;28;20026;-65
2023/09/02 03:08:44;;;;;;;2.85;1.60;;;19.30;74.40;;;;;;4998558;28;20030;-65
2023/09/02 03:11:10;;;;;;;2.55;1.65;;;19.20;74.60;;;;;;5021648;28;20030;-65
2023/09/02 03:13:35;;;;;;;4.00;1.70;;;19.30;74.60;;;;;;5016016;28;20488;-65
2023/09/02 03:16:01;;;;;;;2.95;2.20;;;19.20;74.40;;;;;;5015180;28;20062;-65
2023/09/02 03:18:28;;;;;;;2.67;1.83;;;19.20;74.60;;;;;;5010707;28;20034;-66
2023/09/02 03:20:54;;;;;;;3.33;2.20;;;19.20;74.60;;;;;;5015851;28;20030;-65
2023/09/02 03:23:20;;;;;;;2.53;1.52;;;19.30;74.40;;;;;;5010701;28;20108;-65
2023/09/02 03:25:45;;;;;;;2.78;2.08;;;19.20;74.60;;;;;;5007113;28;20111;-65
2023/09/02 03:28:12;;;;;;;2.67;2.10;;;19.20;74.50;;;;;;5020178;28;20504;-65
2023/09/02 03:30:38;;;;;;;3.38;1.90;;;19.20;74.40;;;;;;5016947;28;20038;-62
2023/09/02 03:33:04;;;;;;;3.45;2.40;;;19.20;74.60;;;;;;5017313;28;20414;-65
2023/09/02 03:35:29;;;;;;;3.20;2.17;;;19.20;74.50;;;;;;5023004;28;20044;-66
2023/09/02 03:37:54;;;;;;;2.75;1.83;;;19.20;74.40;;;;;;5026677;28;20034;-62
2023/09/02 03:40:20;;;;;;;3.97;2.03;;;19.20;74.30;;;;;;5024451;28;20029;-65
2023/09/02 03:42:46;;;;;;;2.63;2.00;;;19.20;74.50;;;;;;5003791;28;20830;-65
2023/09/02 03:45:13;;;;;;;2.70;2.03;;;19.30;74.70;;;;;;5024075;28;20059;-66
2023/09/02 03:47:39;;;;;;;3.05;2.30;;;19.20;74.50;;;;;;5015436;28;20040;-66
2023/09/02 03:50:05;;;;;;;2.55;1.95;;;19.20;74.60;;;;;;5023961;28;20029;-65
2023/09/02 03:52:31;;;;;;;2.92;2.13;;;19.20;74.90;;;;;;5021061;28;20110;-65
2023/09/02 03:54:58;;;;;;;2.25;2.00;;;19.20;74.80;;;;;;5023228;28;20096;-65
2023/09/02 03:57:24;;;;;;;2.45;1.95;;;19.20;74.60;;;;;;5024441;28;20021;-65
2023/09/02 03:59:49;;;;;;;2.85;1.88;;;19.20;74.40;;;;;;5005124;28;20037;-65
2023/09/02 04:02:15;;;;;;;2.35;2.03;;;19.20;74.60;;;;;;5023101;28;20038;-65
2023/09/02 04:04:41;;;;;;;2.75;2.22;;;19.20;74.60;;;;;;5021441;28;20045;-65
2023/09/02 04:07:07;;;;;;;3.10;2.00;;;19.20;74.50;;;;;;5004619;28;20543;-65
2023/09/02 04:09:33;;;;;;;2.80;2.33;;;19.20;74.50;;;;;;5002948;28;20041;-66
2023/09/02 04:11:59;;;;;;;3.55;1.90;;;19.20;74.70;;;;;;5004913;28;20444;-65
2023/09/02 04:14:25;;;;;;;2.53;1.90;;;19.20;74.60;;;;;;5024686;28;20037;-65
2023/09/02 04:16:52;;;;;;;2.58;2.17;;;19.20;74.60;;;;;;5023882;28;20990;-64
2023/09/02 04:19:18;;;;;;;2.33;2.00;;;19.20;74.70;;;;;;5006949;28;20029;-66
2023/09/02 04:21:44;;;;;;;2.97;1.90;;;19.20;74.60;;;;;;5004334;28;20042;-65
2023/09/02 04:24:09;;;;;;;3.92;2.10;;;19.20;74.70;;;;;;5019004;28;20721;-65
2023/09/02 04:26:35;;;;;;;3.00;2.20;;;19.20;74.70;;;;;;5024387;28;20033;-65
2023/09/02 04:29:00;;;;;;;3.88;2.45;;;19.20;74.70;;;;;;5016326;28;20034;-65
2023/09/02 04:31:26;;;;;;;3.85;2.20;;;19.20;74.50;;;;;;5004066;28;20026;-65
2023/09/02 04:33:52;;;;;;;2.30;2.03;;;19.20;74.60;;;;;;5017356;28;20034;-65
2023/09/02 04:36:17;;;;;;;3.92;2.13;;;19.20;74.30;;;;;;5011133;28;20424;-65
2023/09/02 04:38:43;;;;;;;3.13;2.05;;;19.20;74.40;;;;;;5020040;28;20044;-65
2023/09/02 04:41:08;;;;;;;3.67;2.17;;;19.20;74.40;;;;;;5011208;28;20030;-65
2023/09/02 04:43:35;;;;;;;2.40;1.95;;;19.20;74.40;;;;;;5023142;28;20073;-65
2023/09/02 04:46:02;;;;;;;2.72;2.00;;;19.20;74.60;;;;;;5017239;28;20026;-65
2023/09/02 04:48:28;;;;;;;3.45;2.22;;;19.20;74.60;;;;;;5024406;28;20044;-65
2023/09/02 04:50:54;;;;;;;2.47;1.95;;;19.20;74.60;;;;;;5014885;28;20034;-65
2023/09/02 04:53:20;;;;;;;3.55;2.08;;;19.20;74.60;;;;;;5014060;28;20110;-65
2023/09/02 04:55:46;;;;;;;2.17;1.60;;;19.20;74.70;;;;;;5014490;28;22349;-65
2023/09/02 04:58:12;;;;;;;2.58;2.35;;;19.20;74.60;;;;;;5006481;28;20041;-65
2023/09/02 05:00:38;;;;;;;2.25;1.95;;;19.20;74.70;;;;;;5021935;28;20025;-65
2023/09/02 05:03:04;;;;;;;1.98;1.77;;;19.20;75.10;;;;;;4997736;28;20037;-66
2023/09/02 05:05:31;;;;;;;2.38;1.98;;;19.20;74.60;;;;;;5018468;28;20500;-66
2023/09/02 05:07:57;;;;;;;2.97;2.17;;;19.20;74.60;;;;;;5021391;28;20088;-65
2023/09/02 05:10:23;;;;;;;2.50;2.30;;;19.20;74.40;;;;;;5001360;28;20175;-65
2023/09/02 05:12:49;;;;;;;2.80;2.15;;;19.20;74.70;;;;;;5016347;28;20496;-65
2023/09/02 05:15:15;;;;;;;3.03;2.28;;;19.20;74.80;;;;;;5013272;28;20044;-65
2023/09/02 05:17:40;;;;;;;2.88;2.03;;;19.20;74.90;;;;;;5019944;28;20037;-65
2023/09/02 05:20:07;;;;;;;3.67;2.17;;;19.20;74.70;;;;;;5004053;28;20740;-65
2023/09/02 05:22:34;;;;;;;2.55;1.77;;;19.20;74.60;;;;;;5004844;28;20036;-65
2023/09/02 05:24:59;;;;;;;2.67;2.45;;;19.20;74.90;;;;;;5024612;28;20480;-65
2023/09/02 05:27:25;;;;;;;2.50;1.85;;;19.20;74.80;;;;;;5020905;28;20040;-65
2023/09/02 05:29:51;;;;;;;3.15;1.90;;;19.20;74.80;;;;;;5010015;28;20057;-65
2023/09/02 05:32:17;;;;;;;2.28;2.08;;;19.20;74.50;;;;;;5026106;28;20030;-65
2023/09/02 05:34:43;;;;;;;2.88;1.88;;;19.20;74.50;;;;;;5021014;28;20500;-65
2023/09/02 05:37:09;;;;;;;2.55;2.10;;;19.20;74.90;;;;;;5017598;28;20068;-65
2023/09/02 05:39:35;;;;;;;2.55;2.20;;;19.20;74.70;;;;;;5020332;28;20033;-65
2023/09/02 05:42:00;;;;;;;2.55;2.35;;;19.20;74.80;;;;;;5018672;28;20061;-66
2023/09/02 05:44:26;;;;;;;2.97;2.38;;;19.20;74.70;;;;;;5021926;28;20571;-65
2023/09/02 05:46:51;;;;;;;2.20;2.00;;;19.20;74.70;;;;;;5018810;28;20444;-65
2023/09/02 05:49:17;;;;;;;2.45;1.80;;;19.20;74.90;;;;;;5008748;28;20038;-65
2023/09/02 05:51:42;;;;;;;3.95;2.45;;;19.20;74.70;;;;;;5024358;28;20040;-66
2023/09/02 05:54:09;;;;;;;2.30;1.98;;;19.20;74.70;;;;;;5009753;28;20698;-65
2023/09/02 05:56:38;;;;;;;3.15;2.13;;;19.20;74.40;;;;;;5020642;28;20038;-65
2023/09/02 05:59:04;;;;;;;2.70;2.28;;;19.20;74.70;;;;;;5013966;28;20672;-65
2023/09/02 06:01:30;;;;;;;3.25;2.47;;;19.20;74.70;;;;;;5019876;28;20026;-65
2023/09/02 06:03:56;;;;;;;2.83;2.50;;;19.20;74.80;;;;;;5015803;28;20613;-65
2023/09/02 06:06:22;;;;;;;3.13;2.28;;;19.20;74.70;;;;;;5022067;28;20034;-65
2023/09/02 06:08:48;;;;;;;2.42;2.22;;;19.30;75.10;;;;;;5022605;28;20115;-65
2023/09/02 06:11:14;;;;;;;2.25;2.05;;;19.20;75.10;;;;;;5024714;28;20272;-65
2023/09/02 06:13:40;;;;;;;3.40;2.45;;;19.20;74.90;;;;;;5023226;28;20053;-65
2023/09/02 06:16:06;;;;;;;2.55;2.35;;;19.20;74.90;;;;;;5022749;28;20050;-65
2023/09/02 06:18:33;;;;;;;2.30;2.03;;;19.20;74.70;;;;;;5018113;28;20118;-65
2023/09/02 06:20:59;;;;;;;2.47;2.28;;;19.20;74.80;;;;;;5005032;28;20455;-65
2023/09/02 06:23:25;;;;;;;2.80;2.10;;;19.20;74.80;;;;;;5021438;28;20029;-65
2023/09/02 06:26:00;;;;;;;2.78;2.58;;;19.30;75.00;;;;;;5006184;28;20554;-65
2023/09/02 06:28:27;;;;;;;2.92;1.98;;;19.30;74.60;;;;;;5000512;28;20037;-65
2023/09/02 06:30:53;;;;;;;2.30;1.80;;;19.20;74.80;;;;;;5018647;28;20441;-66
2023/09/02 06:33:23;;;;;;;3.30;2.65;;;19.30;75.00;;;;;;5007186;28;20026;-65
2023/09/02 06:35:49;;;;;;;3.15;2.40;;;19.20;74.70;;;;;;5004648;28;20095;-66
2023/09/02 06:38:14;;;;;;;2.42;2.10;;;19.20;74.90;;;;;;5016337;28;20072;-67
2023/09/02 06:40:40;;;;;;;3.63;3.33;;;19.20;74.80;;;;;;5017668;28;20061;-67
2023/09/02 06:43:05;;;;;;;2.13;1.90;;;19.20;75.70;;;;;;5025873;28;20454;-67
2023/09/02 06:45:31;;;;;;;2.97;2.08;;;19.20;75.00;;;;;;5021398;28;20514;-67
2023/09/02 06:47:57;;;;;;;2.28;1.90;;;19.20;75.00;;;;;;5020480;28;20040;-66
2023/09/02 06:50:22;;;;;;;2.58;2.22;;;19.20;74.80;;;;;;5005584;28;20492;-67
2023/09/02 06:52:48;;;;;;;3.35;2.45;;;19.20;74.70;;;;;;5018534;28;20044;-67
2023/09/02 06:55:15;;;;;;;3.63;2.15;;;19.20;74.80;;;;;;5007452;28;20084;-66
2023/09/02 06:57:43;;;;;;;2.95;2.08;;;19.30;74.70;;;;;;5019591;28;20060;-66
2023/09/02 07:00:13;;;;;;;3.42;2.10;;;19.20;75.30;;;;;;5025676;28;20088;-66
2023/09/02 07:02:39;;;;;;;3.42;2.70;;;19.30;75.00;;;;;;5020585;28;20113;-66
2023/09/02 07:05:04;;;;;;;2.33;1.88;;;19.20;74.90;;;;;;5003817;28;20041;-67
2023/09/02 07:07:30;;;;;;;2.55;2.05;;;19.30;74.90;;;;;;5021687;28;20343;-66
2023/09/02 07:09:56;;;;;;;4.72;3.88;;;19.30;75.00;;;;;;5022785;28;20029;-68
2023/09/02 07:12:22;;;;;;;9.70;4.53;;;19.30;75.20;;;;;;5003057;28;20049;-68
2023/09/02 07:14:47;;;;;;;7.78;4.32;;;19.30;75.20;;;;;;5016537;28;21211;-67
2023/09/02 07:17:13;;;;;;;3.42;3.08;;;19.30;75.10;;;;;;5021387;28;20416;-68
2023/09/02 07:19:38;;;;;;;5.53;3.50;;;19.30;75.00;;;;;;5019712;28;20044;-66
2023/09/02 07:22:04;;;;;;;6.70;4.05;;;19.30;75.40;;;;;;5019908;28;20109;-67
2023/09/02 07:24:29;;;;;;;7.43;3.65;;;19.30;75.50;;;;;;5020929;28;20030;-67
2023/09/02 07:26:55;;;;;;;7.05;5.03;;;19.30;75.00;;;;;;5000948;28;20029;-69
2023/09/02 07:29:21;;;;;;;4.68;3.63;;;19.30;75.60;;;;;;5005191;28;20045;-69
2023/09/02 07:31:46;;;;;;;5.28;3.70;;;19.30;75.70;;;;;;5003492;28;20034;-68
2023/09/02 07:34:12;;;;;;;6.65;3.45;;;19.30;75.30;;;;;;5005078;28;20030;-71
2023/09/02 07:36:37;;;;;;;6.97;4.03;;;19.30;75.00;;;;;;5023293;28;20098;-68
2023/09/02 07:39:03;;;;;;;4.43;3.65;;;19.30;75.60;;;;;;5022966;28;20052;-68
2023/09/02 07:41:29;;;;;;;4.47;3.33;;;19.20;76.30;;;;;;5003657;28;20038;-68
2023/09/02 07:43:54;;;;;;;4.65;3.85;;;19.30;75.60;;;;;;5022342;28;20060;-69
2023/09/02 07:46:20;;;;;;;4.85;3.50;;;19.30;76.30;;;;;;5021700;28;20814;-67
2023/09/02 07:48:49;;;;;;;3.58;3.15;;;19.30;75.80;;;;;;5002468;28;20045;-67
2023/09/02 07:51:15;;;;;;;6.88;3.67;;;19.30;75.30;;;;;;5018168;28;20055;-69
2023/09/02 07:53:41;;;;;;;4.53;3.55;;;19.30;75.20;;;;;;5019470;28;20033;-68
2023/09/02 07:56:06;;;;;;;5.78;3.75;;;19.30;75.60;;;;;;5016276;28;20041;-68
2023/09/02 07:58:32;;;;;;;5.95;3.35;;;19.30;75.00;;;;;;5022256;28;20320;-68
2023/09/02 08:00:57;;;;;;;3.28;2.85;;;19.30;75.40;;;;;;5023047;28;20029;-66
2023/09/02 08:03:23;;;;;;;4.30;3.10;;;19.30;75.10;;;;;;5025150;28;20124;-67
2023/09/02 08:05:49;;;;;;;5.97;4.25;;;19.30;75.20;;;;;;5024203;28;20037;-66
2023/09/02 08:08:14;;;;;;;6.03;5.03;;;19.30;74.60;;;;;;5018615;28;20564;-67
2023/09/02 08:10:40;;;;;;;13.40;7.88;;;19.40;74.80;;;;;;5022637;28;20037;-68
2023/09/02 08:13:06;;;;;;;26.25;11.82;;;19.30;75.30;;;;;;5018230;28;20030;-69
2023/09/02 08:15:31;;;;;;;26.85;13.15;;;19.40;75.70;;;;;;5020933;28;20045;-67
2023/09/02 08:17:57;;;;;;;21.38;9.40;;;19.40;75.50;;;;;;5017036;28;20460;-68
2023/09/02 08:20:22;;;;;;;21.67;9.55;;;19.40;75.90;;;;;;5017696;28;20037;-66
2023/09/02 08:22:48;;;;;;;14.93;7.22;;;19.40;76.40;;;;;;5018080;28;20668;-68
2023/09/02 08:25:14;;;;;;;22.40;10.27;;;19.40;76.50;;;;;;5021385;28;20052;-68
2023/09/02 08:27:46;;;;;;;21.75;9.02;;;19.40;76.50;;;;;;5002504;28;20086;-67
2023/09/02 08:30:12;;;;;;;19.80;8.65;;;19.40;77.10;;;;;;5020586;28;20029;-67
2023/09/02 08:32:38;;;;;;;15.55;7.68;;;19.50;76.50;;;;;;5004844;28;20076;-67
2023/09/02 08:35:04;;;;;;;14.95;6.43;;;19.50;77.00;;;;;;5021494;28;20531;-68
2023/09/02 08:37:31;;;;;;;11.63;5.35;;;19.40;76.90;;;;;;5018607;28;20128;-68
2023/09/02 08:39:57;;;;;;;14.48;5.32;;;19.50;77.10;;;;;;5001371;28;20036;-69
2023/09/02 08:42:22;;;;;;;9.35;5.07;;;19.50;77.40;;;;;;5021350;28;20653;-68
2023/09/02 08:44:48;;;;;;;9.00;5.10;;;19.50;77.30;;;;;;5020715;28;20034;-67
2023/09/02 08:47:19;;;;;;;9.23;4.68;;;19.50;77.20;;;;;;5022683;28;20029;-66
2023/09/02 08:49:45;;;;;;;8.23;4.43;;;19.50;77.70;;;;;;5019254;28;20094;-66
2023/09/02 08:52:12;;;;;;;9.88;4.28;;;19.40;76.80;;;;;;5004103;28;20036;-64
2023/09/02 08:54:39;;;;;;;9.55;6.03;;;19.50;77.30;;;;;;5003917;28;20128;-64
2023/09/02 08:57:05;;;;;;;7.20;5.28;;;19.40;77.90;;;;;;5000327;28;20037;-64
2023/09/02 08:59:31;;;;;;;6.57;4.13;;;19.40;77.80;;;;;;5023625;28;20041;-64
2023/09/02 09:01:58;;;;;;;6.80;3.58;;;19.40;77.30;;;;;;5025925;28;20029;-64
2023/09/02 09:04:28;;;;;;;8.00;5.05;;;19.40;77.60;;;;;;5021659;28;20029;-67
2023/09/02 09:06:54;;;;;;;5.13;3.55;;;19.40;78.10;;;;;;5025350;28;20468;-67
2023/09/02 09:09:20;;;;;;;5.97;4.05;;;19.50;77.60;;;;;;5025358;28;20499;-67
2023/09/02 09:11:46;;;;;;;6.22;4.05;;;19.50;77.10;;;;;;5007904;28;20068;-66
2023/09/02 09:14:24;;;;;;;6.32;4.43;;;19.50;76.70;;;;;;5027622;28;20034;-67
2023/09/02 09:16:55;;;;;;;4.78;3.63;;;19.50;77.00;;;;;;5011767;28;20591;-66
2023/09/02 09:19:23;;;;;;;4.25;3.58;;;19.50;76.60;;;;;;5003328;28;20129;-67
2023/09/02 09:21:48;;;;;;;3.88;3.42;;;19.50;76.60;;;;;;5001709;28;20127;-66
2023/09/02 09:24:14;;;;;;;3.85;3.53;;;19.50;77.20;;;;;;5023644;28;20753;-67
2023/09/02 09:26:44;;;;;;;4.95;4.20;;;19.50;76.90;;;;;;5019399;28;20454;-67
2023/09/02 09:29:14;;;;;;;5.20;3.20;;;19.50;77.50;;;;;;5005491;28;20026;-68
2023/09/02 09:31:40;;;;;;;4.05;2.92;;;19.50;77.00;;;;;;5018045;28;20053;-67
2023/09/02 09:34:06;;;;;;;3.30;3.00;;;19.50;77.00;;;;;;5016358;28;20065;-67
2023/09/02 09:36:33;;;;;;;3.20;2.90;;;19.50;77.20;;;;;;5018976;28;20037;-68
2023/09/02 09:39:03;;;;;;;3.58;3.05;;;19.50;77.30;;;;;;5020866;28;20036;-67
2023/09/02 09:41:29;;;;;;;3.30;3.00;;;19.50;77.10;;;;;;5019489;28;20088;-67
2023/09/02 09:44:12;;;;;;;3.08;2.78;;;19.50;77.20;;;;;;5013591;28;20025;-66
2023/09/02 09:46:44;;;;;;;3.63;3.33;;;19.50;77.40;;;;;;5017630;28;20057;-67
2023/09/02 09:49:22;;;;;;;3.72;3.20;;;19.50;77.10;;;;;;5016475;28;20034;-67
2023/09/02 09:51:50;;;;;;;3.50;3.20;;;19.50;77.00;;;;;;5026031;28;20053;-65
2023/09/02 09:54:15;;;;;;;3.95;3.30;;;19.50;76.80;;;;;;5009167;28;20041;-65
2023/09/02 09:56:44;;;;;;;4.28;3.67;;;19.50;77.10;;;;;;5008805;28;20033;-65
2023/09/02 09:59:10;;;;;;;3.70;3.20;;;19.50;76.70;;;;;;5009657;28;20025;-65
2023/09/02 10:01:36;;;;;;;4.00;3.65;;;19.50;77.10;;;;;;5019176;28;20040;-65
2023/09/02 10:04:08;;;;;;;3.50;2.88;;;19.50;77.00;;;;;;5003212;28;20075;-66
2023/09/02 10:06:40;;;;;;;3.95;3.60;;;19.50;77.10;;;;;;5024251;28;20046;-66
2023/09/02 10:09:06;;;;;;;3.55;3.20;;;19.50;77.40;;;;;;5023238;28;20614;-66
2023/09/02 10:11:31;;;;;;;3.85;2.97;;;19.50;77.70;;;;;;5024340;28;20048;-67
2023/09/02 10:13:58;;;;;;;3.20;2.90;;;19.50;77.20;;;;;;5024024;28;20099;-66
2023/09/02 10:16:25;;;;;;;3.45;3.20;;;19.50;76.70;;;;;;5008548;28;20037;-68
2023/09/02 10:18:51;;;;;;;3.33;3.03;;;19.50;77.10;;;;;;5026868;28;20037;-66
2023/09/02 10:21:18;;;;;;;3.17;2.88;;;19.50;77.20;;;;;;5025689;28;20049;-67
2023/09/02 10:23:52;;;;;;;3.63;3.28;;;19.60;76.90;;;;;;5007736;28;20087;-66
2023/09/02 10:26:43;;;;;;;3.17;2.88;;;19.60;77.10;;;;;;5022592;28;20033;-66
2023/09/02 10:29:12;;;;;;;4.60;2.80;;;19.60;77.00;;;;;;5026115;28;21424;-63
2023/09/02 10:31:45;;;;;;;3.00;2.47;;;19.60;77.00;;;;;;5005980;28;20038;-66
2023/09/02 10:34:18;;;;;;;5.75;2.97;;;19.60;77.00;;;;;;5006648;28;20091;-65
2023/09/02 10:37:05;;;;;;;2.70;2.50;;;19.60;77.70;;;;;;5023393;28;20575;-64
2023/09/02 10:39:50;;;;;;;2.80;2.60;;;19.60;77.30;;;;;;5022237;28;20025;-65
2023/09/02 10:42:18;;;;;;;3.15;2.65;;;19.60;77.90;;;;;;5008277;28;20029;-65
2023/09/02 10:44:44;;;;;;;3.25;2.85;;;19.70;78.10;;;;;;5025727;28;20054;-65
2023/09/02 10:47:11;;;;;;;2.90;2.70;;;19.60;77.20;;;;;;5040435;28;20084;-64
2023/09/02 10:49:37;;;;;;;4.38;3.97;;;19.70;77.10;;;;;;5026078;28;20064;-64
2023/09/02 10:52:03;;;;;;;4.85;4.25;;;19.70;77.30;;;;;;5026668;28;20034;-64
2023/09/02 10:55:08;;;;;;;4.82;3.45;;;19.70;77.70;;;;;;5004768;28;20025;-65
2023/09/02 10:57:48;;;;;;;6.88;4.70;;;19.70;79.40;;;;;;5019583;28;20097;-67
2023/09/02 11:00:24;;;;;;;5.68;4.90;;;19.70;80.70;;;;;;5006226;28;20053;-65
2023/09/02 11:02:53;;;;;;;;;;;19.70;79.30;;;;;;5021767;28;20118;-65
2023/09/02 11:05:19;;;;;;;3.40;2.80;;;19.70;79.50;;;;;;5024964;28;19909;-65
2023/09/02 11:07:46;;;;;;;3.83;2.90;;;19.70;80.20;;;;;;5023822;28;20037;-65
2023/09/02 11:10:12;;;;;;;3.92;2.60;;;19.70;80.40;;;;;;5023578;28;20084;-64
2023/09/02 11:12:59;;;;;;;2.75;2.25;;;19.70;79.90;;;;;;5005874;28;20048;-64
2023/09/02 11:15:25;;;;;;;2.80;2.33;;;19.70;79.50;;;;;;5022392;28;20029;-66
2023/09/02 11:17:51;;;;;;;1.90;1.80;;;19.80;80.50;;;;;;5023274;28;20040;-67
2023/09/02 11:20:24;;;;;;;5.13;1.83;;;19.80;79.10;;;;;;5003510;28;20570;-66
2023/09/02 11:23:09;;;;;;;2.10;1.90;;;19.80;79.50;;;;;;5023240;28;20042;-66
2023/09/02 11:25:42;;;;;;;2.38;1.95;;;19.80;79.00;;;;;;5011324;28;20612;-67
2023/09/02 11:28:24;;;;;;;3.72;1.80;;;19.80;79.20;;;;;;5018841;28;20037;-66
2023/09/02 11:31:12;;;;;;;3.63;1.52;;;19.80;78.70;;;;;;5017939;28;20057;-67
2023/09/02 11:33:39;;;;;;;1.90;1.70;;;19.80;78.60;;;;;;5020473;28;20033;-67
2023/09/02 11:36:19;;;;;;;3.33;1.60;;;19.80;79.10;;;;;;5024729;28;20033;-67
2023/09/02 11:38:45;;;;;;;1.60;1.40;;;19.80;78.80;;;;;;5024737;28;20037;-65
2023/09/02 11:41:23;;;;;;;2.75;1.70;;;19.80;78.40;;;;;;5024966;28;20032;-65
2023/09/02 11:43:48;;;;;;;2.15;1.95;;;19.80;78.20;;;;;;5007271;28;20030;-67
2023/09/02 11:46:14;;;;;;;8.65;4.82;;;19.80;78.30;;;;;;5024284;28;20404;-66
2023/09/02 11:48:40;;;;;;;9.18;5.50;;;19.80;78.70;;;;;;5017336;28;20037;-64
2023/09/02 11:51:10;;;;;;;10.68;5.50;;;19.80;78.80;;;;;;5025158;28;20492;-65
2023/09/02 11:53:36;;;;;;;8.45;4.40;;;19.80;78.20;;;;;;5023624;28;20358;-68
2023/09/02 11:56:01;;;;;;;5.53;3.20;;;19.80;78.40;;;;;;5025563;28;20116;-66
2023/09/02 11:58:27;;;;;;;5.88;3.20;;;19.80;78.40;;;;;;5026757;28;20399;-68
2023/09/02 12:00:52;;;;;;;5.63;2.70;;;19.80;78.80;;;;;;5024443;28;20049;-67
2023/09/02 12:03:28;;;;;;;6.18;2.72;;;19.80;78.40;;;;;;5024647;28;20033;-66
2023/09/02 12:05:56;;;;;;;5.55;3.20;;;19.80;77.70;;;;;;5006339;28;20116;-67
2023/09/02 12:08:22;;;;;;;3.83;1.67;;;19.80;78.20;;;;;;5024498;28;20396;-68
2023/09/02 12:10:48;;;;;;;2.72;2.13;;;19.80;76.30;;;;;;5023589;28;20048;-67
2023/09/02 12:13:15;;;;;;;2.55;1.75;;;19.80;76.50;;;;;;5021344;28;20037;-67
2023/09/02 12:15:41;;;;;;;2.17;1.90;;;19.80;77.10;;;;;;5025420;28;20068;-66
2023/09/02 12:18:07;;;;;;;2.92;2.00;;;19.80;76.30;;;;;;5026145;28;20065;-65
2023/09/02 12:20:33;;;;;;;3.00;1.58;;;19.80;76.00;;;;;;5025753;28;20068;-67
2023/09/02 12:22:59;;;;;;;3.70;1.70;;;19.70;75.80;;;;;;5026510;28;20029;-68
2023/09/02 12:25:25;;;;;;;2.25;1.98;;;19.70;76.10;;;;;;5026253;28;20514;-68
2023/09/02 12:27:51;;;;;;;1.90;1.70;;;19.70;76.00;;;;;;5025493;28;20087;-66
2023/09/02 12:30:30;;;;;;;1.73;1.52;;;19.70;75.80;;;;;;5025500;28;20111;-68
2023/09/02 12:32:57;;;;;;;2.15;1.63;;;19.70;75.80;;;;;;5019983;28;20030;-66
2023/09/02 12:35:23;;;;;;;2.15;1.55;;;19.80;76.10;;;;;;5003565;28;20060;-66
2023/09/02 12:38:06;;;;;;;2.17;1.58;;;19.80;76.50;;;;;;5023513;28;20034;-65
2023/09/02 12:40:33;;;;;;;2.67;1.95;;;19.80;76.60;;;;;;5023306;28;20033;-67
2023/09/02 12:42:59;;;;;;;1.75;1.50;;;19.80;76.10;;;;;;5023759;28;20044;-66
2023/09/02 12:45:30;;;;;;;3.88;1.60;;;19.80;75.30;;;;;;5024241;28;20523;-67
2023/09/02 12:47:57;;;;;;;2.95;1.63;;;19.80;75.40;;;;;;5024001;28;20492;-66